createdAt,value
2023-09-05T00:12:01.791Z,21.98
2023-09-05T00:42:03.669Z,22.99
2023-09-05T01:12:05.649Z,20.12
2023-09-05T01:42:07.186Z,21.99
2023-09-05T02:12:10.102Z,21.80
2023-09-05T02:42:11.802Z,19.80
2023-09-05T03:12:13.614Z,21.35
2023-09-05T03:42:19.720Z,21.49
2023-09-05T04:12:21.546Z,18.75
2023-09-05T04:42:24.162Z,20.70
2023-09-05T05:12:26.340Z,21.87
2023-09-05T05:42:28.358Z,22.25
2023-09-05T06:12:31.491Z,22.04
2023-09-05T06:42:33.067Z,24.47
2023-09-05T07:12:35.057Z,22.56
2023-09-05T07:42:36.611Z,24.26
2023-09-05T08:12:39.560Z,23.88
2023-09-05T08:42:41.166Z,24.77
2023-09-05T09:12:43.373Z,25.02
2023-09-05T09:42:44.954Z,26.39
2023-09-05T10:12:47.758Z,26.04
2023-09-05T10:42:49.413Z,25.05
2023-09-05T11:12:51.289Z,25.80
2023-09-05T12:13:44.845Z,25.53
2023-09-05T12:43:46.891Z,26.17
2023-09-05T14:16:58.030Z,25.64
2023-09-05T15:17:45.892Z,25.74
2023-09-05T15:47:47.974Z,25.09
2023-09-05T16:17:50.402Z,23.97
2023-09-05T16:47:52.715Z,22.88
2023-09-05T18:24:11.176Z,24.08
2023-09-05T18:54:15.587Z,22.62
2023-09-05T19:24:19.007Z,23.06
2023-09-05T19:54:23.025Z,20.67
2023-09-05T20:24:26.221Z,19.43
2023-09-05T20:54:30.668Z,22.52
2023-09-05T21:24:34.075Z,19.39
2023-09-05T21:54:37.958Z,21.94
2023-09-05T22:24:41.048Z,18.66
2023-09-05T22:54:44.642Z,21.46
2023-09-05T23:24:47.877Z,18.17
2023-09-05T23:54:51.390Z,20.50
